Time;durP1;ratioP1;P1;durP2;ratioP2;P2;SDS_P1;SDS_P2;PMS_P1;PMS_P2;Temp;Humidity;BMP_temperature;BMP_pressure;BME280_temperature;BME280_humidity;BME280_pressure;Samples;Min_cycle;Max_cycle;Signal;HPM_P1;HPM_P2
2022/05/09 00:01:56;;;;;;;6.50;2.50;;;14.40;51.20;;;;;;5134211;27;20054;-69
2022/05/09 00:04:21;;;;;;;7.78;2.42;;;14.40;51.30;;;;;;5127499;27;20020;-69
2022/05/09 00:06:48;;;;;;;10.57;2.53;;;14.40;51.40;;;;;;5117160;27;20035;-69
2022/05/09 00:09:14;;;;;;;7.75;2.38;;;14.40;51.40;;;;;;5127651;27;20459;-68
2022/05/09 00:11:40;;;;;;;8.18;2.72;;;14.40;51.50;;;;;;5119042;27;20027;-69
2022/05/09 00:14:05;;;;;;;8.73;2.58;;;14.30;51.40;;;;;;5129086;27;20046;-69
2022/05/09 00:16:34;;;;;;;8.02;2.40;;;14.30;51.50;;;;;;5136543;27;20031;-69
2022/05/09 00:19:05;;;;;;;9.90;2.55;;;14.30;51.60;;;;;;5128687;27;20050;-69
2022/05/09 00:21:37;;;;;;;9.63;2.20;;;14.30;51.60;;;;;;5136754;27;20463;-69
2022/05/09 00:24:03;;;;;;;8.07;2.60;;;14.30;51.60;;;;;;5125569;27;20027;-69
2022/05/09 00:26:31;;;;;;;8.45;2.55;;;14.30;51.70;;;;;;5137426;27;20045;-69
2022/05/09 00:29:03;;;;;;;11.13;2.65;;;14.30;51.90;;;;;;5132540;27;20019;-69
2022/05/09 00:31:29;;;;;;;10.77;2.90;;;14.20;52.00;;;;;;5121870;27;20532;-68
2022/05/09 00:33:55;;;;;;;7.43;2.15;;;14.20;52.10;;;;;;5113993;27;20472;-69
2022/05/09 00:36:22;;;;;;;8.73;2.20;;;14.20;52.20;;;;;;5117132;27;20024;-69
2022/05/09 00:38:50;;;;;;;8.57;2.30;;;14.10;52.20;;;;;;5119796;27;20103;-68
2022/05/09 00:41:28;;;;;;;10.65;3.05;;;14.10;52.20;;;;;;5119193;27;20032;-68
2022/05/09 00:43:56;;;;;;;8.27;2.30;;;14.10;52.30;;;;;;5132555;27;20029;-69
2022/05/09 00:46:22;;;;;;;8.23;2.45;;;14.10;52.40;;;;;;5118333;27;20059;-68
2022/05/09 00:48:48;;;;;;;9.38;2.50;;;14.10;52.40;;;;;;5120792;27;20067;-69
2022/05/09 00:51:22;;;;;;;8.02;2.40;;;14.00;52.50;;;;;;5132377;27;20034;-69
2022/05/09 00:53:48;;;;;;;10.23;2.75;;;14.00;52.60;;;;;;5125195;27;20139;-69
2022/05/09 00:56:20;;;;;;;11.38;2.85;;;13.90;52.60;;;;;;5119982;27;20039;-69
2022/05/09 00:58:52;;;;;;;11.90;2.60;;;13.90;52.70;;;;;;5104480;27;20027;-69
2022/05/09 01:01:20;;;;;;;10.93;2.60;;;13.90;52.70;;;;;;5134932;27;20106;-68
2022/05/09 01:04:04;;;;;;;8.80;2.22;;;13.90;52.70;;;;;;5121101;27;20529;-69
2022/05/09 01:06:30;;;;;;;10.43;2.40;;;13.90;52.80;;;;;;5116979;27;20055;-69
2022/05/09 01:08:55;;;;;;;9.13;2.63;;;13.90;52.80;;;;;;5123750;27;20074;-69
2022/05/09 01:11:25;;;;;;;9.90;2.72;;;13.90;52.80;;;;;;5122103;27;20039;-69
2022/05/09 01:13:57;;;;;;;8.48;2.65;;;13.90;53.00;;;;;;5116394;27;20027;-68
2022/05/09 01:16:24;;;;;;;10.68;2.80;;;13.90;52.90;;;;;;5122420;27;20035;-69
2022/05/09 01:18:50;;;;;;;10.70;3.03;;;13.90;52.90;;;;;;5120045;27;20368;-69
2022/05/09 01:21:37;;;;;;;10.00;2.63;;;13.90;53.00;;;;;;5123187;27;20038;-68
2022/05/09 01:24:05;;;;;;;7.78;2.33;;;13.90;53.00;;;;;;5131220;27;20027;-69
2022/05/09 01:26:31;;;;;;;9.77;2.85;;;13.80;53.10;;;;;;5122760;27;20051;-69
2022/05/09 01:29:01;;;;;;;8.90;2.78;;;13.80;53.10;;;;;;5115976;27;20081;-69
2022/05/09 01:31:27;;;;;;;7.65;2.67;;;13.80;53.20;;;;;;5127767;27;20038;-69
2022/05/09 01:33:54;;;;;;;9.07;2.63;;;13.80;53.20;;;;;;5118571;27;20055;-69
2022/05/09 01:36:29;;;;;;;10.07;3.33;;;13.80;53.20;;;;;;5125501;27;20027;-69
2022/05/09 01:38:58;;;;;;;9.75;2.63;;;13.80;53.20;;;;;;5132602;27;20035;-68
2022/05/09 01:41:25;;;;;;;10.30;3.17;;;13.80;53.30;;;;;;5122707;27;20492;-68
2022/05/09 01:43:54;;;;;;;12.13;3.20;;;13.80;53.30;;;;;;5098113;27;20026;-68
2022/05/09 01:46:28;;;;;;;9.40;2.67;;;13.70;53.40;;;;;;5125756;27;20462;-68
2022/05/09 01:51:41;;;;;;;7.78;2.40;;;13.70;53.50;;;;;;5115601;28;20038;-69
2022/05/09 01:54:07;;;;;;;9.15;2.92;;;13.70;53.60;;;;;;5131437;27;20046;-68
2022/05/09 01:56:36;;;;;;;8.70;2.65;;;13.60;53.50;;;;;;5124808;27;20027;-69
2022/05/09 01:59:03;;;;;;;9.05;3.10;;;13.60;53.50;;;;;;5123288;27;20110;-69
2022/05/09 02:01:36;;;;;;;7.75;2.47;;;13.60;53.60;;;;;;5126139;27;20023;-68
2022/05/09 02:04:01;;;;;;;9.77;2.88;;;13.60;53.60;;;;;;5113414;27;20034;-68
2022/05/09 02:06:27;;;;;;;10.00;2.65;;;13.50;53.60;;;;;;5127853;27;20080;-68
2022/05/09 02:08:53;;;;;;;10.88;2.80;;;13.50;53.70;;;;;;5125361;27;20049;-68
2022/05/09 02:11:18;;;;;;;10.65;2.83;;;13.50;53.70;;;;;;5122861;27;20083;-68
2022/05/09 02:13:44;;;;;;;7.60;2.28;;;13.50;53.80;;;;;;5135154;27;20150;-68
2022/05/09 02:16:11;;;;;;;7.88;2.85;;;13.50;53.80;;;;;;5125474;27;20388;-68
2022/05/09 02:18:37;;;;;;;10.32;2.63;;;13.50;53.90;;;;;;5129840;27;20020;-68
2022/05/09 02:21:03;;;;;;;9.95;2.67;;;13.40;53.90;;;;;;5129156;28;20049;-69
2022/05/09 02:23:29;;;;;;;10.73;3.25;;;13.40;54.00;;;;;;5096727;28;20026;-68
2022/05/09 02:25:54;;;;;;;8.73;2.65;;;13.40;54.00;;;;;;5127509;28;20428;-69
2022/05/09 02:28:23;;;;;;;7.38;3.13;;;13.40;54.10;;;;;;5117961;28;20016;-69
2022/05/09 02:30:49;;;;;;;11.30;2.70;;;13.40;54.10;;;;;;5126464;27;20049;-69
2022/05/09 02:33:15;;;;;;;8.05;2.55;;;13.40;54.20;;;;;;5106735;28;20433;-69
2022/05/09 02:35:42;;;;;;;11.27;3.22;;;13.40;54.20;;;;;;5121994;27;20023;-68
2022/05/09 02:38:10;;;;;;;8.50;2.60;;;13.30;54.20;;;;;;5120970;27;20032;-69
2022/05/09 02:40:36;;;;;;;12.38;2.72;;;13.30;54.30;;;;;;5135749;27;20122;-69
2022/05/09 02:43:03;;;;;;;8.15;3.00;;;13.30;54.30;;;;;;5132212;27;20098;-69
2022/05/09 02:45:29;;;;;;;8.73;3.05;;;13.30;54.40;;;;;;5117905;27;20110;-69
2022/05/09 02:47:56;;;;;;;11.38;2.92;;;13.30;54.50;;;;;;5125789;27;20027;-68
2022/05/09 02:50:23;;;;;;;9.23;3.10;;;13.20;54.50;;;;;;5136147;27;20416;-68
2022/05/09 02:52:50;;;;;;;8.73;3.03;;;13.20;54.50;;;;;;5119861;27;20317;-69
2022/05/09 02:55:17;;;;;;;9.57;2.90;;;13.20;54.60;;;;;;5119825;27;20031;-68
2022/05/09 02:57:43;;;;;;;10.07;2.90;;;13.20;54.60;;;;;;5125860;27;20034;-69
2022/05/09 03:00:13;;;;;;;12.68;3.10;;;13.10;54.60;;;;;;5137056;27;20308;-68
2022/05/09 03:02:39;;;;;;;11.52;3.10;;;13.10;54.80;;;;;;5126306;27;20024;-69
2022/05/09 03:05:06;;;;;;;11.77;3.08;;;13.10;54.90;;;;;;5134141;27;20027;-68
2022/05/09 03:07:32;;;;;;;10.23;3.10;;;13.10;55.00;;;;;;5131107;27;20363;-68
2022/05/09 03:09:59;;;;;;;6.70;2.53;;;13.00;55.00;;;;;;5136738;27;20504;-69
2022/05/09 03:12:25;;;;;;;8.80;2.97;;;13.00;55.00;;;;;;5123817;27;20035;-69
2022/05/09 03:14:51;;;;;;;10.05;3.38;;;13.00;55.00;;;;;;5136804;27;20070;-68
2022/05/09 03:17:17;;;;;;;11.48;3.47;;;13.00;55.00;;;;;;5123021;27;20192;-68
2022/05/09 03:19:43;;;;;;;9.68;3.08;;;13.00;55.10;;;;;;5130197;27;20026;-68
2022/05/09 03:22:08;;;;;;;10.57;3.13;;;13.00;55.10;;;;;;5124005;27;20023;-68
2022/05/09 03:24:35;;;;;;;9.68;3.28;;;12.90;55.10;;;;;;5118188;28;20020;-68
2022/05/09 03:27:03;;;;;;;12.93;4.07;;;12.90;55.30;;;;;;5133874;27;20035;-68
2022/05/09 03:29:30;;;;;;;11.45;3.30;;;12.90;55.30;;;;;;5118808;27;20030;-68
2022/05/09 03:31:56;;;;;;;9.45;3.33;;;12.90;55.40;;;;;;5135869;27;20067;-68
2022/05/09 03:34:22;;;;;;;8.80;3.03;;;12.90;55.50;;;;;;5115366;28;20075;-68
2022/05/09 03:36:47;;;;;;;9.90;3.30;;;12.80;56.10;;;;;;5129954;28;20305;-68
2022/05/09 03:39:13;;;;;;;9.32;3.47;;;12.80;55.50;;;;;;5129752;28;20031;-68
2022/05/09 03:41:41;;;;;;;9.95;3.05;;;12.80;55.60;;;;;;5125088;27;20034;-68
2022/05/09 03:44:07;;;;;;;9.50;3.40;;;12.80;55.60;;;;;;5115492;28;20422;-68
2022/05/09 03:46:32;;;;;;;11.25;3.10;;;12.70;55.70;;;;;;5115987;28;20094;-68
2022/05/09 03:49:04;;;;;;;10.55;3.33;;;12.70;55.80;;;;;;5133743;27;20046;-68
2022/05/09 03:51:30;;;;;;;9.02;3.10;;;12.70;55.80;;;;;;5132367;27;20355;-68
2022/05/09 03:53:55;;;;;;;9.07;3.15;;;12.70;55.90;;;;;;5125422;28;20030;-68
2022/05/09 03:56:21;;;;;;;9.85;3.17;;;12.60;56.00;;;;;;5120269;27;20034;-68
2022/05/09 03:58:46;;;;;;;8.52;2.97;;;12.60;56.10;;;;;;5121025;28;20034;-68
2022/05/09 04:01:12;;;;;;;12.27;3.40;;;12.60;56.20;;;;;;5118036;28;20363;-68
2022/05/09 04:03:38;;;;;;;11.48;3.55;;;12.60;56.20;;;;;;5118522;28;20031;-68
2022/05/09 04:06:04;;;;;;;9.82;2.72;;;12.60;56.30;;;;;;5133904;27;20455;-68
2022/05/09 04:08:30;;;;;;;8.68;2.83;;;12.50;56.40;;;;;;5128938;28;20411;-68
2022/05/09 04:10:56;;;;;;;9.13;3.15;;;12.60;56.40;;;;;;5124703;27;20513;-68
2022/05/09 04:13:22;;;;;;;8.35;3.03;;;12.60;56.50;;;;;;5123856;28;20055;-68
2022/05/09 04:18:41;;;;;;;11.85;3.88;;;12.50;56.60;;;;;;5133421;27;20045;-68
2022/05/09 04:21:09;;;;;;;10.48;3.20;;;12.50;56.60;;;;;;5135517;28;20138;-68
2022/05/09 04:23:35;;;;;;;12.98;3.65;;;12.50;56.60;;;;;;5129313;28;20031;-68
2022/05/09 04:26:01;;;;;;;9.00;3.22;;;12.50;56.70;;;;;;5115088;28;20359;-68
2022/05/09 04:28:27;;;;;;;8.75;3.42;;;12.50;56.80;;;;;;5128652;28;20028;-69
2022/05/09 04:30:56;;;;;;;10.88;3.03;;;12.50;56.80;;;;;;5111503;28;20032;-68
2022/05/09 04:33:22;;;;;;;12.45;3.45;;;12.50;56.80;;;;;;5094034;27;1058762;-68
2022/05/09 04:35:48;;;;;;;13.88;2.92;;;12.50;57.40;;;;;;5123267;27;20063;-67
2022/05/09 04:38:23;;;;;;;8.85;3.17;;;12.50;56.80;;;;;;5127420;27;20031;-68
2022/05/09 04:40:51;;;;;;;10.90;3.40;;;12.50;56.90;;;;;;5117301;27;20387;-68
2022/05/09 04:43:23;;;;;;;11.75;3.20;;;12.50;56.90;;;;;;5119894;27;20032;-67
2022/05/09 04:45:49;;;;;;;14.15;3.65;;;12.50;56.70;;;;;;5129883;27;20044;-67
2022/05/09 04:48:17;;;;;;;10.65;3.15;;;12.60;56.70;;;;;;5116452;27;20023;-67
2022/05/09 04:50:42;;;;;;;8.40;3.10;;;12.60;56.70;;;;;;5116287;28;20042;-67
2022/05/09 04:53:08;;;;;;;10.90;3.10;;;12.60;56.60;;;;;;5130426;27;20405;-67
2022/05/09 04:55:34;;;;;;;12.30;3.25;;;12.70;56.50;;;;;;5134816;27;20039;-67
2022/05/09 04:57:59;;;;;;;10.98;3.60;;;12.60;56.40;;;;;;5119243;27;20063;-67
2022/05/09 05:00:26;;;;;;;9.25;3.55;;;12.70;56.40;;;;;;5114147;27;20027;-67
2022/05/09 05:02:54;;;;;;;14.15;3.42;;;12.70;56.40;;;;;;5133966;27;20028;-67
2022/05/09 05:05:20;;;;;;;9.23;3.50;;;12.70;56.50;;;;;;5127877;27;20030;-67
2022/05/09 05:07:46;;;;;;;11.10;3.55;;;12.70;56.40;;;;;;5130560;27;20023;-67
2022/05/09 05:10:12;;;;;;;9.50;3.88;;;12.80;56.40;;;;;;5134101;27;20132;-67
2022/05/09 05:12:38;;;;;;;9.88;3.63;;;12.80;56.40;;;;;;5125193;27;20034;-67
2022/05/09 05:15:05;;;;;;;9.80;3.90;;;12.90;56.40;;;;;;5125583;27;20100;-67
2022/05/09 05:17:30;;;;;;;9.75;3.53;;;12.90;56.30;;;;;;5126079;27;20047;-67
2022/05/09 05:19:56;;;;;;;8.82;3.55;;;13.00;56.40;;;;;;5126651;27;20389;-67
2022/05/09 05:22:22;;;;;;;12.35;3.53;;;13.00;56.30;;;;;;5134868;27;20047;-67
2022/05/09 05:24:52;;;;;;;11.10;3.65;;;13.10;56.20;;;;;;5121538;27;20458;-67
2022/05/09 05:27:21;;;;;;;11.43;3.10;;;13.20;56.10;;;;;;5126628;27;20030;-67
2022/05/09 05:29:50;;;;;;;12.60;3.60;;;13.40;55.90;;;;;;5119963;27;20042;-67
2022/05/09 05:32:23;;;;;;;8.15;3.42;;;13.50;55.50;;;;;;5121886;27;20027;-68
2022/05/09 05:34:49;;;;;;;9.32;3.28;;;13.70;55.30;;;;;;5125125;27;20050;-67
2022/05/09 05:37:16;;;;;;;9.95;3.50;;;13.80;55.10;;;;;;5132985;27;20118;-66
2022/05/09 05:39:45;;;;;;;9.88;2.80;;;14.00;54.90;;;;;;5115763;28;20372;-67
2022/05/09 05:42:11;;;;;;;9.30;3.60;;;14.20;54.70;;;;;;5118692;27;20104;-67
2022/05/09 05:44:37;;;;;;;11.20;3.45;;;14.30;54.40;;;;;;5136495;27;20458;-67
2022/05/09 05:47:07;;;;;;;9.70;3.67;;;14.40;54.20;;;;;;5134558;27;20019;-67
2022/05/09 05:49:34;;;;;;;10.98;3.90;;;14.50;54.00;;;;;;5117773;27;20092;-67
2022/05/09 05:52:03;;;;;;;11.93;3.88;;;14.70;54.00;;;;;;5127793;27;20038;-67
2022/05/09 05:54:30;;;;;;;9.68;3.92;;;14.80;53.80;;;;;;5134115;27;20107;-67
2022/05/09 05:56:56;;;;;;;11.25;3.65;;;14.90;53.50;;;;;;5114945;27;20050;-68
2022/05/09 05:59:25;;;;;;;9.95;3.55;;;15.00;53.30;;;;;;5127751;27;20062;-69
2022/05/09 06:01:56;;;;;;;10.25;3.35;;;15.20;53.10;;;;;;5128977;27;20026;-69
2022/05/09 06:04:23;;;;;;;12.32;3.45;;;15.30;52.80;;;;;;5137123;27;20483;-68
2022/05/09 06:06:50;;;;;;;10.25;2.97;;;15.40;52.60;;;;;;5122851;27;20044;-68
2022/05/09 06:09:16;;;;;;;8.88;3.25;;;15.60;52.40;;;;;;5125101;27;20460;-68
2022/05/09 06:11:42;;;;;;;11.30;3.63;;;15.80;52.20;;;;;;5117582;27;20062;-69
2022/05/09 06:14:09;;;;;;;12.20;3.78;;;16.00;51.90;;;;;;5116907;27;20091;-68
2022/05/09 06:16:35;;;;;;;8.82;2.95;;;16.20;51.50;;;;;;5118297;27;20402;-69
2022/05/09 06:19:01;;;;;;;13.38;3.55;;;16.40;51.20;;;;;;5121755;27;20028;-66
2022/05/09 06:21:27;;;;;;;10.30;2.95;;;16.50;50.90;;;;;;5129150;27;20035;-68
2022/05/09 06:23:53;;;;;;;9.98;3.25;;;16.80;50.70;;;;;;5119674;28;20024;-68
2022/05/09 06:26:20;;;;;;;9.65;3.47;;;16.90;50.20;;;;;;5118486;28;20031;-67
2022/05/09 06:28:46;;;;;;;10.82;3.22;;;17.10;50.00;;;;;;5120052;28;20019;-68
2022/05/09 06:31:12;;;;;;;9.43;3.40;;;17.20;49.70;;;;;;5114982;28;20069;-68
2022/05/09 06:33:38;;;;;;;10.23;3.08;;;17.40;49.50;;;;;;5112814;28;20366;-68
2022/05/09 06:36:05;;;;;;;10.07;3.13;;;17.50;49.20;;;;;;5117258;28;20460;-68
2022/05/09 06:38:31;;;;;;;7.15;2.50;;;17.70;49.50;;;;;;5115076;28;20023;-68
2022/05/09 06:41:00;;;;;;;10.85;3.42;;;17.80;48.70;;;;;;5122047;28;20038;-68
2022/05/09 06:43:26;;;;;;;8.50;3.13;;;18.00;48.50;;;;;;5121528;27;20031;-66
2022/05/09 06:45:52;;;;;;;9.63;3.45;;;18.10;48.20;;;;;;5120454;27;20020;-67
2022/05/09 06:48:18;;;;;;;9.35;3.33;;;18.20;48.00;;;;;;5132467;28;20030;-69
2022/05/09 06:50:44;;;;;;;10.63;3.50;;;18.30;47.70;;;;;;5126703;28;20528;-68
2022/05/09 06:53:12;;;;;;;10.13;3.13;;;18.40;47.60;;;;;;5113375;28;20500;-68
2022/05/09 06:55:37;;;;;;;12.52;3.47;;;18.60;47.40;;;;;;5135090;27;20070;-69
2022/05/09 06:58:11;;;;;;;10.50;3.60;;;18.80;47.20;;;;;;5123482;28;20034;-68
2022/05/09 07:00:37;;;;;;;7.65;3.08;;;18.90;47.10;;;;;;5125441;27;20055;-68
2022/05/09 07:03:04;;;;;;;10.95;3.38;;;19.10;46.90;;;;;;5117436;27;20063;-68
2022/05/09 07:05:29;;;;;;;8.43;3.05;;;19.20;46.50;;;;;;5116337;27;20117;-68
2022/05/09 07:07:55;;;;;;;10.10;3.03;;;19.30;46.30;;;;;;5117111;27;20031;-69
2022/05/09 07:10:21;;;;;;;9.95;3.30;;;19.50;46.20;;;;;;5115445;28;20032;-67
2022/05/09 07:12:53;;;;;;;9.88;3.50;;;19.60;46.10;;;;;;5125129;28;20126;-69
2022/05/09 07:15:29;;;;;;;10.70;3.42;;;19.80;46.00;;;;;;5124796;28;20023;-69
2022/05/09 07:17:55;;;;;;;9.50;3.67;;;19.90;45.50;;;;;;5130180;28;20095;-69
2022/05/09 07:20:25;;;;;;;9.82;3.88;;;19.90;45.20;;;;;;5117351;27;20035;-69
2022/05/09 07:22:52;;;;;;;9.93;3.80;;;20.10;45.10;;;;;;5123265;27;20035;-69
2022/05/09 07:25:19;;;;;;;9.02;3.50;;;20.10;45.00;;;;;;5117876;27;20117;-68
2022/05/09 07:27:44;;;;;;;9.20;3.67;;;20.30;45.00;;;;;;5115798;27;20024;-68
2022/05/09 07:30:15;;;;;;;8.55;3.60;;;20.40;44.80;;;;;;5120094;27;20080;-69
2022/05/09 07:32:41;;;;;;;10.98;3.63;;;20.60;44.60;;;;;;5124800;27;20039;-69
2022/05/09 07:35:10;;;;;;;12.05;3.65;;;20.60;44.50;;;;;;5128191;27;20042;-69
2022/05/09 07:37:37;;;;;;;10.80;3.92;;;20.70;44.30;;;;;;5098586;28;20451;-68
2022/05/09 07:40:04;;;;;;;9.55;3.25;;;20.80;44.30;;;;;;5118659;27;20035;-67
2022/05/09 07:42:29;;;;;;;10.13;3.70;;;21.00;44.00;;;;;;5125815;27;20102;-68
2022/05/09 07:44:56;;;;;;;10.75;3.92;;;21.10;43.90;;;;;;5120698;27;20124;-68
2022/05/09 07:47:23;;;;;;;9.43;3.58;;;21.20;43.50;;;;;;5124106;27;20039;-68
2022/05/09 07:49:50;;;;;;;9.00;3.95;;;21.30;43.20;;;;;;5127209;27;20494;-67
2022/05/09 07:52:16;;;;;;;9.10;3.25;;;21.30;43.20;;;;;;5121069;27;20034;-68
2022/05/09 07:54:41;;;;;;;11.27;3.90;;;21.40;43.00;;;;;;5118488;27;20035;-68
2022/05/09 07:57:07;;;;;;;13.30;3.35;;;21.40;42.80;;;;;;5118519;27;20035;-68
2022/05/09 07:59:33;;;;;;;9.93;4.03;;;21.50;42.70;;;;;;5123891;27;20380;-69
2022/05/09 08:01:58;;;;;;;10.65;3.55;;;21.60;42.50;;;;;;5118353;27;20106;-69
2022/05/09 08:04:24;;;;;;;10.38;3.83;;;21.70;42.40;;;;;;5118803;27;20038;-69
2022/05/09 08:06:49;;;;;;;7.68;3.17;;;21.80;42.20;;;;;;5115076;27;20035;-68
2022/05/09 08:09:15;;;;;;;10.55;3.85;;;21.90;42.20;;;;;;5122001;27;20063;-69
2022/05/09 08:11:43;;;;;;;9.93;3.55;;;22.00;41.90;;;;;;5135523;27;20027;-69
2022/05/09 08:14:11;;;;;;;9.93;3.38;;;22.10;41.60;;;;;;5129322;27;20031;-69
2022/05/09 08:16:39;;;;;;;12.45;3.85;;;22.20;41.40;;;;;;5118723;27;20046;-69
2022/05/09 08:19:07;;;;;;;10.40;3.50;;;22.30;41.20;;;;;;5117678;27;20382;-69
2022/05/09 08:21:37;;;;;;;9.48;3.05;;;22.40;41.00;;;;;;5117249;27;20024;-69
2022/05/09 08:24:05;;;;;;;10.30;3.38;;;22.40;40.90;;;;;;5117968;27;20023;-69
2022/05/09 08:26:31;;;;;;;10.05;3.42;;;22.50;40.90;;;;;;5123645;27;20028;-69
2022/05/09 08:28:57;;;;;;;12.13;4.00;;;22.60;40.70;;;;;;5120021;27;20343;-69
2022/05/09 08:31:23;;;;;;;10.63;3.55;;;22.70;40.50;;;;;;5126207;27;20035;-69
2022/05/09 08:33:52;;;;;;;9.55;3.45;;;22.80;40.30;;;;;;5120325;27;20195;-69
2022/05/09 08:39:08;;;;;;;7.72;2.70;;;23.00;39.90;;;;;;5119571;27;20436;-70
2022/05/09 08:42:04;;;;;;;10.23;3.40;;;23.00;39.60;;;;;;5135216;27;20094;-69
2022/05/09 08:45:04;;;;;;;8.75;3.42;;;23.10;39.30;;;;;;5134944;27;20090;-70
2022/05/09 08:47:49;;;;;;;11.05;3.33;;;23.20;39.20;;;;;;5118272;27;20657;-70
2022/05/09 08:50:39;;;;;;;11.07;3.13;;;23.30;39.20;;;;;;5128518;27;20031;-70
2022/05/09 08:53:09;;;;;;;12.10;3.80;;;23.50;38.70;;;;;;5128894;27;20332;-69
2022/05/09 08:55:40;;;;;;;8.18;3.22;;;23.60;38.60;;;;;;5124292;27;20027;-69
2022/05/09 08:58:33;;;;;;;8.73;3.15;;;23.70;38.40;;;;;;5137323;27;20122;-70
2022/05/09 09:01:03;;;;;;;10.95;3.70;;;23.80;37.90;;;;;;5127573;27;20066;-70
2022/05/09 09:03:37;;;;;;;8.85;3.22;;;23.80;37.80;;;;;;5131661;27;20065;-70
2022/05/09 09:06:11;;;;;;;8.95;3.47;;;23.90;37.60;;;;;;5129984;27;20340;-70
2022/05/09 09:08:58;;;;;;;9.10;4.00;;;23.90;37.30;;;;;;5115757;27;20019;-69
2022/05/09 09:11:53;;;;;;;9.85;3.42;;;24.00;36.90;;;;;;5122621;27;20023;-69
2022/05/09 09:14:28;;;;;;;9.45;3.85;;;24.10;36.40;;;;;;5119954;27;20114;-70
2022/05/09 09:17:12;;;;;;;7.80;3.15;;;24.20;36.30;;;;;;5130134;27;20035;-69
2022/05/09 09:19:57;;;;;;;6.55;2.70;;;24.30;35.90;;;;;;5132184;27;20031;-70
2022/05/09 09:22:54;;;;;;;7.70;3.03;;;24.40;35.60;;;;;;5130101;27;20107;-69
2022/05/09 09:25:48;;;;;;;8.63;2.92;;;24.60;35.30;;;;;;5123135;27;20028;-70
2022/05/09 09:28:49;;;;;;;10.07;3.10;;;24.70;35.10;;;;;;5116156;27;20034;-70
2022/05/09 09:31:28;;;;;;;6.93;2.58;;;24.70;35.10;;;;;;5127263;27;20039;-70
2022/05/09 09:33:59;;;;;;;7.88;2.78;;;24.80;34.80;;;;;;5132255;27;20464;-70
2022/05/09 09:36:36;;;;;;;8.75;3.25;;;24.90;34.60;;;;;;5115292;27;20038;-70
2022/05/09 09:39:11;;;;;;;8.45;2.47;;;24.90;34.70;;;;;;5126281;27;20030;-69
2022/05/09 09:41:37;;;;;;;8.57;2.72;;;25.00;34.90;;;;;;5120706;27;20036;-69
2022/05/09 09:44:14;;;;;;;8.63;2.92;;;25.10;34.70;;;;;;5119810;27;20036;-69
2022/05/09 09:47:12;;;;;;;5.93;2.13;;;25.10;34.50;;;;;;5116389;27;20035;-69
2022/05/09 09:49:43;;;;;;;7.63;2.05;;;25.20;34.10;;;;;;5131049;27;20473;-69
2022/05/09 09:52:28;;;;;;;4.90;1.88;;;25.30;33.90;;;;;;5122573;27;20435;-69
2022/05/09 09:55:28;;;;;;;6.38;2.13;;;25.30;33.50;;;;;;5118154;27;20081;-69
2022/05/09 09:57:55;;;;;;;4.15;1.52;;;25.30;33.40;;;;;;5129852;27;20034;-69
2022/05/09 10:00:24;;;;;;;7.18;2.15;;;25.40;33.40;;;;;;5114308;28;20085;-68
2022/05/09 10:02:51;;;;;;;8.10;2.05;;;25.40;33.10;;;;;;5116461;27;20035;-69
2022/05/09 10:05:21;;;;;;;7.80;2.42;;;25.50;33.10;;;;;;5114578;28;20380;-69
2022/05/09 10:07:47;;;;;;;6.00;2.15;;;25.60;33.00;;;;;;5099004;28;20089;-69
2022/05/09 10:10:26;;;;;;;7.25;2.55;;;25.70;33.10;;;;;;5122377;27;20035;-69
2022/05/09 10:12:57;;;;;;;8.73;2.83;;;25.70;32.90;;;;;;5115781;28;20046;-69
2022/05/09 10:15:36;;;;;;;7.53;2.60;;;25.70;32.90;;;;;;5114571;28;20039;-69
2022/05/09 10:18:23;;;;;;;7.13;2.30;;;25.70;33.20;;;;;;5118154;27;20053;-70
2022/05/09 10:20:51;;;;;;;9.52;2.63;;;25.70;33.40;;;;;;5121426;27;20028;-69
2022/05/09 10:26:29;;;;;;;7.72;2.35;;;25.70;33.50;;;;;;5117853;28;20339;-69
2022/05/09 10:28:59;;;;;;;6.18;2.40;;;25.80;33.40;;;;;;5125202;27;20028;-68
2022/05/09 10:31:48;;;;;;;6.50;2.40;;;25.80;33.30;;;;;;5139229;27;20031;-69
2022/05/09 10:34:17;;;;;;;5.95;2.17;;;25.80;33.30;;;;;;5138475;27;20040;-69
2022/05/09 10:36:54;;;;;;;7.60;2.22;;;25.80;33.50;;;;;;5126994;28;20026;-69
2022/05/09 10:39:28;;;;;;;9.35;2.90;;;25.90;33.30;;;;;;5128214;28;20447;-70
2022/05/09 10:41:59;;;;;;;7.40;2.25;;;26.00;33.30;;;;;;5140708;27;20031;-69
2022/05/09 10:44:32;;;;;;;7.65;2.38;;;26.00;33.60;;;;;;5130025;27;20189;-69
2022/05/09 10:47:08;;;;;;;7.15;2.58;;;26.00;33.70;;;;;;5135199;27;20035;-69
2022/05/09 10:49:52;;;;;;;7.28;2.40;;;26.20;33.70;;;;;;5119858;28;20027;-69
2022/05/09 10:52:41;;;;;;;7.38;2.38;;;26.20;33.70;;;;;;5124555;27;20031;-69
2022/05/09 10:55:25;;;;;;;7.25;2.67;;;26.30;33.60;;;;;;5118878;27;20039;-68
2022/05/09 10:57:56;;;;;;;7.22;2.33;;;26.40;33.80;;;;;;5119606;27;20376;-68
2022/05/09 11:00:26;;;;;;;7.63;2.50;;;26.40;33.70;;;;;;5121570;27;20371;-68
2022/05/09 11:03:04;;;;;;;10.15;2.42;;;26.30;33.50;;;;;;5123944;27;20027;-66
2022/05/09 11:06:02;;;;;;;5.82;2.00;;;26.40;33.70;;;;;;5129864;27;20030;-66
2022/05/09 11:09:02;;;;;;;7.22;2.50;;;26.40;33.60;;;;;;5119761;27;20444;-67
2022/05/09 11:11:42;;;;;;;6.10;1.85;;;26.30;33.30;;;;;;5118461;27;20124;-68
2022/05/09 11:14:26;;;;;;;6.28;1.92;;;26.30;33.30;;;;;;5129000;27;20019;-68
2022/05/09 11:16:55;;;;;;;9.82;4.03;;;26.30;33.40;;;;;;5122958;27;20031;-68
2022/05/09 11:19:46;;;;;;;8.02;3.33;;;26.30;33.50;;;;;;5125310;27;20038;-68
2022/05/09 11:22:15;;;;;;;;;;;26.30;33.30;;;;;;5124869;27;20058;-67
2022/05/09 11:25:11;;;;;;;7.75;2.03;;;26.30;33.60;;;;;;5121242;27;19908;-67
2022/05/09 11:28:19;;;;;;;7.00;2.10;;;26.30;33.50;;;;;;5124070;27;20030;-67
2022/05/09 11:30:56;;;;;;;6.53;2.42;;;26.30;33.50;;;;;;5094906;28;20125;-68
2022/05/09 11:34:13;;;;;;;6.15;2.17;;;26.30;33.60;;;;;;5103678;27;20054;-67
2022/05/09 11:37:08;;;;;;;4.25;1.73;;;26.30;33.40;;;;;;5083504;28;20037;-68
2022/05/09 11:39:51;;;;;;;8.63;2.20;;;26.30;33.30;;;;;;5081202;28;20043;-67
2022/05/09 11:45:52;;;;;;;7.22;2.30;;;26.30;33.50;;;;;;5094255;28;20453;-67
2022/05/09 11:48:42;;;;;;;5.80;1.98;;;26.30;34.30;;;;;;5094005;28;20020;-68
2022/05/09 11:51:48;;;;;;;6.30;1.93;;;26.20;33.40;;;;;;5067038;28;20092;-68
2022/05/09 11:54:19;;;;;;;6.47;2.45;;;26.10;33.10;;;;;;5087330;28;20044;-67
2022/05/09 11:56:48;;;;;;;5.85;2.47;;;26.00;33.10;;;;;;5093510;28;20059;-67
2022/05/09 11:59:32;;;;;;;5.93;2.10;;;26.00;33.40;;;;;;5088692;28;20105;-68
2022/05/09 12:02:10;;;;;;;6.78;2.30;;;25.90;33.30;;;;;;5074176;28;20167;-68
2022/05/09 12:04:48;;;;;;;5.90;2.00;;;25.90;33.40;;;;;;5083185;28;20036;-68
2022/05/09 12:07:26;;;;;;;5.47;1.70;;;25.90;33.20;;;;;;5071110;28;20032;-68
2022/05/09 12:10:16;;;;;;;5.28;1.80;;;25.80;33.40;;;;;;5073376;28;20060;-68
2022/05/09 12:12:54;;;;;;;8.95;2.05;;;25.70;33.60;;;;;;5102257;27;20039;-67
2022/05/09 12:15:23;;;;;;;6.43;2.05;;;25.70;33.70;;;;;;5100119;28;20119;-68
2022/05/09 12:17:54;;;;;;;7.07;2.03;;;25.70;33.90;;;;;;5125469;27;20023;-67
2022/05/09 12:20:29;;;;;;;7.03;2.17;;;25.50;34.30;;;;;;5130076;27;20032;-67
2022/05/09 12:23:02;;;;;;;6.68;1.90;;;25.50;34.30;;;;;;5126554;27;20452;-67
2022/05/09 12:25:36;;;;;;;6.70;2.20;;;25.40;34.30;;;;;;5122413;27;20024;-68
2022/05/09 12:28:04;;;;;;;6.88;2.40;;;25.30;34.30;;;;;;5134984;27;20031;-67
2022/05/09 12:31:04;;;;;;;6.40;2.15;;;25.20;34.40;;;;;;5129987;27;20049;-67
2022/05/09 12:33:50;;;;;;;5.80;2.20;;;25.20;34.50;;;;;;5116544;28;20047;-68
2022/05/09 12:36:22;;;;;;;4.30;1.80;;;25.20;34.90;;;;;;5127870;27;20086;-67
2022/05/09 12:38:50;;;;;;;7.22;2.35;;;25.10;34.80;;;;;;5117305;27;20024;-67
2022/05/09 12:41:52;;;;;;;5.38;1.85;;;24.90;35.00;;;;;;5151508;27;20027;-66
2022/05/09 12:44:20;;;;;;;5.30;2.28;;;24.90;35.30;;;;;;5127354;27;20063;-67
2022/05/09 12:46:51;;;;;;;7.53;2.20;;;24.80;35.40;;;;;;5115669;28;20178;-67
2022/05/09 12:49:20;;;;;;;7.10;2.35;;;24.70;35.50;;;;;;5116160;28;20054;-67
2022/05/09 12:51:49;;;;;;;6.15;2.50;;;24.60;36.00;;;;;;5099647;28;20425;-67
2022/05/09 12:54:19;;;;;;;7.28;2.47;;;24.50;35.70;;;;;;5114982;27;20028;-67
2022/05/09 12:56:52;;;;;;;8.25;3.00;;;24.50;35.80;;;;;;5126133;27;20351;-67
2022/05/09 12:59:19;;;;;;;7.70;2.63;;;24.50;35.70;;;;;;5134747;27;20038;-67
2022/05/09 13:01:52;;;;;;;6.78;2.15;;;24.40;35.70;;;;;;5130690;27;20455;-67
2022/05/09 13:04:29;;;;;;;7.35;2.25;;;24.40;35.60;;;;;;5109009;28;20027;-67
2022/05/09 13:07:00;;;;;;;6.28;2.20;;;24.40;35.70;;;;;;5129709;27;20027;-67
2022/05/09 13:09:30;;;;;;;6.53;2.08;;;24.20;35.80;;;;;;5131986;27;20092;-67
2022/05/09 13:12:03;;;;;;;7.60;1.93;;;24.30;36.00;;;;;;5123951;27;20104;-67
2022/05/09 13:14:39;;;;;;;6.35;2.15;;;24.20;36.10;;;;;;5127170;27;20526;-67
2022/05/09 13:17:11;;;;;;;7.20;2.47;;;24.20;36.20;;;;;;5119087;27;20048;-67
2022/05/09 13:19:37;;;;;;;6.85;2.55;;;24.20;36.20;;;;;;5116017;27;20121;-67